Time;durP1;ratioP1;P1;durP2;ratioP2;P2;SDS_P1;SDS_P2;PMS_P1;PMS_P2;Temp;Humidity;BMP_temperature;BMP_pressure;BME280_temperature;BME280_humidity;BME280_pressure;Samples;Min_cycle;Max_cycle;Signal;HPM_P1;HPM_P2
2023/12/09 00:01:21;;;;;;;;;;;7.10;99.90;;;;;;5028626;28;19925;-56
2023/12/09 00:03:49;;;;;;;;;;;6.10;99.90;;;;;;5039728;28;19932;-57
2023/12/09 00:06:22;;;;;;;;;;;6.10;99.90;;;;;;5033886;28;19925;-56
2023/12/09 00:08:50;;;;;;;;;;;6.10;99.90;;;;;;5038466;28;19925;-56
2023/12/09 00:11:20;;;;;;;;;;;6.10;99.90;;;;;;5026360;28;19925;-56
2023/12/09 00:13:47;;;;;;;;;;;6.20;99.90;;;;;;5021835;28;19925;-56
2023/12/09 00:16:15;;;;;;;;;;;6.10;99.90;;;;;;5028198;28;19933;-56
2023/12/09 00:18:43;;;;;;;;;;;6.10;99.90;;;;;;5028182;28;19933;-57
2023/12/09 00:21:11;;;;;;;;;;;6.10;99.90;;;;;;5027110;28;19929;-57
2023/12/09 00:23:38;;;;;;;;;;;6.10;99.90;;;;;;5029146;28;19926;-57
2023/12/09 00:26:15;;;;;;;;;;;6.00;99.90;;;;;;5042479;28;20000;-57
2023/12/09 00:28:42;;;;;;;;;;;5.90;99.90;;;;;;5028272;28;19925;-57
2023/12/09 00:31:10;;;;;;;;;;;5.80;99.90;;;;;;5031327;28;19929;-57
2023/12/09 00:33:38;;;;;;;;;;;5.80;99.90;;;;;;5032294;28;19936;-57
2023/12/09 00:36:06;;;;;;;;;;;5.70;99.90;;;;;;5032668;28;19932;-57
2023/12/09 00:38:34;;;;;;;;;;;5.70;99.90;;;;;;5033269;28;19931;-57
2023/12/09 00:41:02;;;;;;;;;;;5.60;99.90;;;;;;5032117;28;20400;-56
2023/12/09 00:43:32;;;;;;;;;;;5.60;99.90;;;;;;5032325;28;20332;-57
2023/12/09 00:45:59;;;;;;;;;;;5.50;99.90;;;;;;5052213;28;19932;-56
2023/12/09 00:48:27;;;;;;;;;;;5.50;99.90;;;;;;5036921;28;19925;-56
2023/12/09 00:50:55;;;;;;;;;;;5.40;99.90;;;;;;5032273;28;19933;-56
2023/12/09 00:53:24;;;;;;;;;;;5.40;99.90;;;;;;5031747;28;19925;-57
2023/12/09 00:55:52;;;;;;;;;;;5.40;99.90;;;;;;5051032;28;19936;-57
2023/12/09 00:58:19;;;;;;;;;;;5.40;99.90;;;;;;5034546;28;19932;-56
2023/12/09 01:00:48;;;;;;;;;;;5.40;99.90;;;;;;5031864;28;19925;-57
2023/12/09 01:03:15;;;;;;;;;;;5.40;99.90;;;;;;5028072;28;19925;-59
2023/12/09 01:05:43;;;;;;;;;;;5.40;99.90;;;;;;5028353;28;19937;-57
2023/12/09 01:08:11;;;;;;;;;;;5.50;99.90;;;;;;5030648;28;19933;-57
2023/12/09 01:10:39;;;;;;;;;;;5.50;99.90;;;;;;5031236;28;19932;-57
2023/12/09 01:13:07;;;;;;;;;;;5.50;99.90;;;;;;5024396;28;19932;-57
2023/12/09 01:15:34;;;;;;;;;;;5.50;99.90;;;;;;5031557;28;19925;-57
2023/12/09 01:18:02;;;;;;;;;;;5.60;99.90;;;;;;5031103;28;19937;-56
2023/12/09 01:20:30;;;;;;;;;;;5.60;99.90;;;;;;5031042;28;19932;-57
2023/12/09 01:22:58;;;;;;;;;;;5.60;99.90;;;;;;5029581;28;20389;-56
2023/12/09 01:25:25;;;;;;;;;;;5.60;99.90;;;;;;5046636;28;20525;-56
2023/12/09 01:27:56;;;;;;;;;;;5.60;99.90;;;;;;5036570;28;19929;-57
2023/12/09 01:30:24;;;;;;;;;;;5.60;99.90;;;;;;5031108;28;20381;-57
2023/12/09 01:32:52;;;;;;;;;;;5.60;99.90;;;;;;5030760;28;19936;-57
2023/12/09 01:35:19;;;;;;;;;;;5.60;99.90;;;;;;5031254;28;20402;-57
2023/12/09 01:37:47;;;;;;;;;;;5.60;99.90;;;;;;5030878;28;19937;-57
2023/12/09 01:40:15;;;;;;;;;;;5.60;99.90;;;;;;5030710;28;19935;-57
2023/12/09 01:42:44;;;;;;;;;;;5.60;99.90;;;;;;5024481;28;19929;-57
2023/12/09 01:45:11;;;;;;;;;;;5.60;99.90;;;;;;5031039;28;19932;-57
2023/12/09 01:47:39;;;;;;;;;;;5.50;99.90;;;;;;5031261;28;19929;-56
2023/12/09 01:50:07;;;;;;;;;;;5.50;99.90;;;;;;5030640;28;19932;-56
2023/12/09 01:52:35;;;;;;;;;;;5.50;99.90;;;;;;5030407;28;19929;-57
2023/12/09 01:55:03;;;;;;;;;;;5.50;99.90;;;;;;5050571;28;19929;-57
2023/12/09 01:57:31;;;;;;;;;;;5.50;99.90;;;;;;5042536;28;19933;-56
2023/12/09 01:59:59;;;;;;;;;;;5.50;99.90;;;;;;5033639;28;20289;-57
2023/12/09 02:02:27;;;;;;;;;;;5.50;99.90;;;;;;5030070;28;19948;-57
2023/12/09 02:04:55;;;;;;;;;;;5.40;99.90;;;;;;5030736;28;19925;-57
2023/12/09 02:07:23;;;;;;;;;;;5.40;99.90;;;;;;5029647;28;19929;-57
2023/12/09 02:09:51;;;;;;;;;;;5.50;99.90;;;;;;5033593;28;19925;-57
2023/12/09 02:12:22;;;;;;;;;;;5.50;99.90;;;;;;5028076;28;19926;-56
2023/12/09 02:14:49;;;;;;;;;;;5.50;99.90;;;;;;5029402;28;19932;-57
2023/12/09 02:17:22;;;;;;;;;;;5.50;99.90;;;;;;5030463;28;19926;-57
2023/12/09 02:19:51;;;;;;;;;;;5.60;99.90;;;;;;5028823;28;19925;-56
2023/12/09 02:22:18;;;;;;;;;;;5.60;99.90;;;;;;5030446;28;19925;-56
2023/12/09 02:24:46;;;;;;;;;;;5.70;99.90;;;;;;5039984;28;19932;-56
2023/12/09 02:27:18;;;;;;;;;;;5.70;99.90;;;;;;5048462;28;19943;-57
2023/12/09 02:29:50;;;;;;;;;;;5.70;99.90;;;;;;5028334;28;19925;-56
2023/12/09 02:32:20;;;;;;;;;;;5.80;99.90;;;;;;5025825;28;19925;-57
2023/12/09 02:34:48;;;;;;;;;;;5.90;99.90;;;;;;5033332;28;19925;-57
2023/12/09 02:37:18;;;;;;;;;;;5.90;99.90;;;;;;5031656;28;19925;-57
2023/12/09 02:39:46;;;;;;;;;;;6.00;99.90;;;;;;5032221;28;20309;-56
2023/12/09 02:42:14;;;;;;;;;;;6.00;99.90;;;;;;5033007;28;19936;-57
2023/12/09 02:44:42;;;;;;;;;;;6.20;99.90;;;;;;5027180;28;20297;-57
2023/12/09 02:47:14;;;;;;;;;;;6.30;99.90;;;;;;5031744;28;19925;-56
2023/12/09 02:49:42;;;;;;;;;;;6.40;99.90;;;;;;5032826;28;20305;-56
2023/12/09 02:52:11;;;;;;;;;;;6.50;99.90;;;;;;5032954;28;19925;-57
2023/12/09 02:54:38;;;;;;;;;;;6.50;99.90;;;;;;5041193;28;20328;-57
2023/12/09 02:57:06;;;;;;;;;;;6.60;99.90;;;;;;5033537;28;19933;-56
2023/12/09 02:59:34;;;;;;;;;;;6.60;99.90;;;;;;5032211;28;20309;-57
2023/12/09 03:02:02;;;;;;;;;;;6.60;99.90;;;;;;5032556;28;19925;-56
2023/12/09 03:04:31;;;;;;;;;;;6.70;99.90;;;;;;5032798;28;19925;-56
2023/12/09 03:06:58;;;;;;;;;;;6.80;99.90;;;;;;5032298;28;20373;-57
2023/12/09 03:09:26;;;;;;;;;;;6.80;99.90;;;;;;5032431;28;19925;-57
2023/12/09 03:11:54;;;;;;;;;;;6.90;99.90;;;;;;5032651;28;19929;-57
2023/12/09 03:14:22;;;;;;;;;;;6.90;99.90;;;;;;5032399;28;19925;-57
2023/12/09 03:16:50;;;;;;;;;;;6.90;99.90;;;;;;5032224;28;19925;-57
2023/12/09 03:19:18;;;;;;;;;;;6.90;99.90;;;;;;5030937;28;19925;-57
2023/12/09 03:21:46;;;;;;;;;;;7.00;99.90;;;;;;5032177;28;19925;-57
2023/12/09 03:24:14;;;;;;;;;;;6.90;99.90;;;;;;5038283;28;20422;-57
2023/12/09 03:26:41;;;;;;;;;;;7.00;99.90;;;;;;5052029;28;19924;-59
2023/12/09 03:29:09;;;;;;;;;;;7.00;99.90;;;;;;5036418;28;20301;-58
2023/12/09 03:31:39;;;;;;;;;;;7.00;99.90;;;;;;5032064;28;20286;-57
2023/12/09 03:34:07;;;;;;;;;;;7.00;99.90;;;;;;5032288;28;19925;-57
2023/12/09 03:36:34;;;;;;;;;;;6.90;99.90;;;;;;5031925;28;20381;-57
2023/12/09 03:39:02;;;;;;;;;;;7.00;99.90;;;;;;5032092;28;19925;-57
2023/12/09 03:41:31;;;;;;;;;;;6.90;99.90;;;;;;5032211;28;19932;-56
2023/12/09 03:43:59;;;;;;;;;;;6.90;99.90;;;;;;5032136;28;19929;-56
2023/12/09 03:46:26;;;;;;;;;;;6.90;99.90;;;;;;5031693;28;20694;-57
2023/12/09 03:48:54;;;;;;;;;;;6.90;99.90;;;;;;5031931;28;19933;-57
2023/12/09 03:51:22;;;;;;;;;;;6.90;99.90;;;;;;5032150;28;19932;-57
2023/12/09 03:53:49;;;;;;;;;;;6.90;99.90;;;;;;5034280;28;20405;-57
2023/12/09 03:56:21;;;;;;;;;;;6.90;99.90;;;;;;5051642;28;19931;-57
2023/12/09 03:58:50;;;;;;;;;;;6.90;99.90;;;;;;5049516;28;19925;-56
2023/12/09 04:01:18;;;;;;;;;;;6.90;99.90;;;;;;5031570;28;19932;-57
2023/12/09 04:03:45;;;;;;;;;;;6.90;99.90;;;;;;5031922;28;19929;-57
2023/12/09 04:06:13;;;;;;;;;;;6.90;99.90;;;;;;5030961;28;19925;-56
2023/12/09 04:08:41;;;;;;;;;;;6.90;99.90;;;;;;5030308;28;19932;-57
2023/12/09 04:11:09;;;;;;;;;;;7.00;99.90;;;;;;5031552;28;19947;-57
2023/12/09 04:13:36;;;;;;;;;;;6.90;99.90;;;;;;5031747;28;19925;-57
2023/12/09 04:16:05;;;;;;;;;;;7.00;99.90;;;;;;5031698;28;19940;-57
2023/12/09 04:18:33;;;;;;;;;;;7.00;99.90;;;;;;5031451;28;19925;-57
2023/12/09 04:21:02;;;;;;;;;;;6.90;99.90;;;;;;5029136;28;19933;-56
2023/12/09 04:23:30;;;;;;;;;;;7.00;99.90;;;;;;5031641;28;19995;-57
2023/12/09 04:25:58;;;;;;;;;;;7.00;99.90;;;;;;5023116;28;19925;-57
2023/12/09 04:28:26;;;;;;;;;;;7.00;99.90;;;;;;5031606;28;19929;-56
2023/12/09 04:30:53;;;;;;;;;;;7.00;99.90;;;;;;5030633;28;19925;-57
2023/12/09 04:33:21;;;;;;;;;;;7.00;99.90;;;;;;5030629;28;19932;-56
2023/12/09 04:35:49;;;;;;;;;;;7.10;99.90;;;;;;5031578;28;19925;-57
2023/12/09 04:38:17;;;;;;;;;;;7.10;99.90;;;;;;5031375;28;19932;-57
2023/12/09 04:40:44;;;;;;;;;;;7.10;99.90;;;;;;5031253;28;19940;-56
2023/12/09 04:43:12;;;;;;;;;;;7.10;99.90;;;;;;5031710;28;20401;-56
2023/12/09 04:45:40;;;;;;;;;;;7.10;99.90;;;;;;5030372;28;20306;-56
2023/12/09 04:48:08;;;;;;;;;;;7.10;99.90;;;;;;5031326;28;19925;-56
2023/12/09 04:50:36;;;;;;;;;;;7.10;99.90;;;;;;5030881;28;19929;-57
2023/12/09 04:53:03;;;;;;;;;;;7.10;99.90;;;;;;5031217;28;19925;-56
2023/12/09 04:55:31;;;;;;;;;;;7.10;99.90;;;;;;5046612;28;19925;-56
2023/12/09 04:57:59;;;;;;;;;;;7.10;99.90;;;;;;5041327;28;19925;-56
2023/12/09 05:00:30;;;;;;;;;;;7.10;99.90;;;;;;5031357;28;20274;-56
2023/12/09 05:02:57;;;;;;;;;;;7.10;99.90;;;;;;5029338;28;20389;-56
2023/12/09 05:05:25;;;;;;;;;;;7.10;99.90;;;;;;5031276;28;19929;-56
2023/12/09 05:07:53;;;;;;;;;;;7.20;99.90;;;;;;5031247;28;19997;-56
2023/12/09 05:10:21;;;;;;;;;;;7.10;99.90;;;;;;5031054;28;19925;-56
2023/12/09 05:12:48;;;;;;;;;;;7.20;99.90;;;;;;5030938;28;19925;-56
2023/12/09 05:15:16;;;;;;;;;;;7.20;99.90;;;;;;5031094;28;20583;-56
2023/12/09 05:17:44;;;;;;;;;;;7.20;99.90;;;;;;5032446;28;19925;-56
2023/12/09 05:20:12;;;;;;;;;;;7.20;99.90;;;;;;5034706;28;19948;-56
2023/12/09 05:22:40;;;;;;;;;;;7.20;99.90;;;;;;5033362;28;19948;-56
2023/12/09 05:25:08;;;;;;;;;;;7.20;99.90;;;;;;5048035;28;19932;-56
2023/12/09 05:27:36;;;;;;;;;;;7.20;99.90;;;;;;5054362;28;19928;-56
2023/12/09 05:30:04;;;;;;;;;;;7.20;99.90;;;;;;5046326;28;19925;-56
2023/12/09 05:32:32;;;;;;;;;;;7.20;99.90;;;;;;5033966;28;19925;-56
2023/12/09 05:35:00;;;;;;;;;;;7.20;99.90;;;;;;5034522;28;20296;-56
2023/12/09 05:37:27;;;;;;;;;;;7.20;99.90;;;;;;5034216;28;19932;-56
2023/12/09 05:39:55;;;;;;;;;;;7.20;99.90;;;;;;5032881;28;20389;-56
2023/12/09 05:42:23;;;;;;;;;;;7.30;99.90;;;;;;5032386;28;19925;-56
2023/12/09 05:44:53;;;;;;;;;;;7.20;99.90;;;;;;5034156;28;19933;-56
2023/12/09 05:47:20;;;;;;;;;;;7.20;99.90;;;;;;5028203;28;19929;-57
2023/12/09 05:49:48;;;;;;;;;;;7.30;99.90;;;;;;5011073;28;19932;-57
2023/12/09 05:52:18;;;;;;;;;;;7.30;99.90;;;;;;5017037;28;20288;-57
2023/12/09 05:54:46;;;;;;;;;;;7.30;99.90;;;;;;5040799;28;19936;-55
2023/12/09 05:57:14;;;;;;;;;;;7.30;99.90;;;;;;5049138;28;19925;-56
2023/12/09 05:59:42;;;;;;;;;;;7.30;99.90;;;;;;5033298;28;20331;-56
2023/12/09 06:02:10;;;;;;;;;;;7.30;99.90;;;;;;5022936;28;19955;-56
2023/12/09 06:04:38;;;;;;;;;;;7.30;99.90;;;;;;5024393;28;19925;-56
2023/12/09 06:07:06;;;;;;;;;;;7.30;99.90;;;;;;5027185;28;19929;-59
2023/12/09 06:09:34;;;;;;;;;;;7.30;99.90;;;;;;5029156;28;19933;-57
2023/12/09 06:12:01;;;;;;;;;;;7.30;99.90;;;;;;5030504;28;20431;-57
2023/12/09 06:14:30;;;;;;;;;;;7.30;99.90;;;;;;5029211;28;19940;-57
2023/12/09 06:16:58;;;;;;;;;;;7.20;99.90;;;;;;5028149;28;19933;-57
2023/12/09 06:19:25;;;;;;;;;;;7.30;99.90;;;;;;5012684;28;19930;-56
2023/12/09 06:21:54;;;;;;;;;;;7.20;99.90;;;;;;5013095;28;20492;-57
2023/12/09 06:24:21;;;;;;;;;;;7.20;99.90;;;;;;5035829;28;20003;-57
2023/12/09 06:26:49;;;;;;;;;;;7.20;99.90;;;;;;5047948;28;20309;-57
2023/12/09 06:29:17;;;;;;;;;;;7.20;99.90;;;;;;5045154;28;19928;-57
2023/12/09 06:31:45;;;;;;;;;;;7.20;99.90;;;;;;5045286;28;19924;-57
2023/12/09 06:34:13;;;;;;;;;;;7.20;99.90;;;;;;5026126;28;20305;-57
2023/12/09 06:36:41;;;;;;;;;;;7.20;99.90;;;;;;5025538;28;19932;-57
2023/12/09 06:39:08;;;;;;;;;;;7.20;99.90;;;;;;5029751;28;20293;-59
2023/12/09 06:41:39;;;;;;;;;;;7.20;99.90;;;;;;5029978;28;19925;-57
2023/12/09 06:44:07;;;;;;;;;;;7.20;99.90;;;;;;5029502;28;19929;-57
2023/12/09 06:46:38;;;;;;;;;;;7.20;99.90;;;;;;5030225;28;19925;-57
2023/12/09 06:49:07;;;;;;;;;;;7.30;99.90;;;;;;5020755;28;19957;-57
2023/12/09 06:51:35;;;;;;;;;;;7.20;99.90;;;;;;5009972;28;19941;-57
2023/12/09 06:54:03;;;;;;;;;;;7.30;99.90;;;;;;5033589;28;19925;-58
2023/12/09 06:56:30;;;;;;;;;;;7.30;99.90;;;;;;5038106;28;19932;-57
2023/12/09 06:59:00;;;;;;;;;;;7.30;99.90;;;;;;5026336;28;19932;-58
2023/12/09 07:01:28;;;;;;;;;;;7.30;99.90;;;;;;5025751;28;20000;-58
2023/12/09 07:03:56;;;;;;;;;;;7.30;99.90;;;;;;5003167;28;19925;-58
2023/12/09 07:06:27;;;;;;;;;;;7.40;99.90;;;;;;5007617;28;19933;-57
2023/12/09 07:08:58;;;;;;;;;;;7.40;99.90;;;;;;5039434;28;20297;-57
2023/12/09 07:11:26;;;;;;;;;;;7.40;99.90;;;;;;5049257;28;20301;-57
2023/12/09 07:13:55;;;;;;;;;;;7.40;99.90;;;;;;5034932;28;19932;-57
2023/12/09 07:16:22;;;;;;;;;;;7.40;99.90;;;;;;5029348;28;19992;-57
2023/12/09 07:18:51;;;;;;;;;;;7.40;99.90;;;;;;5025991;28;20286;-57
2023/12/09 07:21:19;;;;;;;;;;;7.40;99.90;;;;;;5014037;28;20365;-57
2023/12/09 07:23:47;;;;;;;;;;;7.50;99.90;;;;;;5031179;28;20032;-57
2023/12/09 07:26:16;;;;;;;;;;;7.50;99.90;;;;;;5047893;28;20290;-57
2023/12/09 07:28:47;;;;;;;;;;;7.50;99.90;;;;;;5045422;28;20312;-57
2023/12/09 07:31:16;;;;;;;;;;;7.60;99.90;;;;;;5042963;28;19948;-57
2023/12/09 07:33:43;;;;;;;;;;;7.60;99.90;;;;;;5032014;28;19932;-57
2023/12/09 07:36:11;;;;;;;;;;;7.60;99.90;;;;;;5009544;28;19955;-57
2023/12/09 07:38:39;;;;;;;;;;;7.60;99.90;;;;;;5021846;28;19925;-57
2023/12/09 07:41:07;;;;;;;;;;;7.70;99.90;;;;;;5028030;28;19929;-57
2023/12/09 07:43:35;;;;;;;;;;;7.70;99.90;;;;;;5027162;28;20291;-57
2023/12/09 07:46:07;;;;;;;;;;;7.70;99.90;;;;;;5028646;28;19932;-56
2023/12/09 07:48:34;;;;;;;;;;;7.80;99.90;;;;;;5024009;28;19932;-56
2023/12/09 07:51:03;;;;;;;;;;;7.80;99.90;;;;;;5009126;28;20305;-57
2023/12/09 07:53:30;;;;;;;;;;;7.80;99.90;;;;;;5043032;28;19929;-56
2023/12/09 07:55:58;;;;;;;;;;;7.90;99.90;;;;;;5048885;28;19929;-57
2023/12/09 07:58:26;;;;;;;;;;;7.90;99.90;;;;;;5048642;28;19931;-56
2023/12/09 08:00:54;;;;;;;;;;;7.90;99.90;;;;;;5035478;28;20000;-57
2023/12/09 08:03:22;;;;;;;;;;;8.00;99.90;;;;;;5033151;28;19925;-56
2023/12/09 08:05:50;;;;;;;;;;;8.00;99.90;;;;;;5005475;28;19926;-57
2023/12/09 08:08:18;;;;;;;;;;;8.00;99.90;;;;;;5027332;28;19929;-56
2023/12/09 08:10:46;;;;;;;;;;;8.00;99.90;;;;;;5038199;28;19936;-57
2023/12/09 08:13:14;;;;;;;;;;;8.00;99.90;;;;;;5028157;28;20370;-57
2023/12/09 08:15:42;;;;;;;;;;;8.10;99.90;;;;;;5027139;28;19925;-57
2023/12/09 08:18:10;;;;;;;;;;;8.00;99.90;;;;;;5036941;28;20312;-57
2023/12/09 08:20:38;;;;;;;;;;;8.10;99.90;;;;;;5010092;28;19929;-56
2023/12/09 08:23:07;;;;;;;;;;;8.10;99.90;;;;;;5023958;28;19958;-56
2023/12/09 08:25:34;;;;;;;;;;;8.10;99.90;;;;;;5045410;28;19933;-57
2023/12/09 08:28:02;;;;;;;;;;;8.10;99.90;;;;;;5047808;28;19924;-56
2023/12/09 08:30:30;;;;;;;;;;;8.10;99.90;;;;;;5035086;28;19925;-56
2023/12/09 08:32:58;;;;;;;;;;;8.10;99.90;;;;;;5038018;28;19933;-56
2023/12/09 08:35:26;;;;;;;;;;;8.10;99.90;;;;;;5027095;28;19925;-57
2023/12/09 08:37:53;;;;;;;;;;;8.10;99.90;;;;;;5028131;28;20436;-56
2023/12/09 08:40:22;;;;;;;;;;;8.20;99.90;;;;;;5028561;28;19932;-58
2023/12/09 08:42:50;;;;;;;;;;;8.20;99.90;;;;;;5036592;28;19939;-56
2023/12/09 08:45:18;;;;;;;;;;;8.20;99.90;;;;;;5034078;28;19929;-56
2023/12/09 08:47:46;;;;;;;;;;;8.20;99.90;;;;;;5028166;28;19932;-56
2023/12/09 08:50:14;;;;;;;;;;;8.20;99.90;;;;;;5012207;28;19933;-56
2023/12/09 08:52:52;;;;;;;;;;;8.20;99.90;;;;;;5015749;28;19929;-56
2023/12/09 08:55:21;;;;;;;;;;;8.20;99.90;;;;;;5034015;28;19926;-57
2023/12/09 08:57:51;;;;;;;;;;;8.20;99.90;;;;;;5028014;28;19925;-56
2023/12/09 09:00:20;;;;;;;;;;;8.30;99.90;;;;;;5030094;28;19948;-56
2023/12/09 09:02:50;;;;;;;;;;;8.30;99.90;;;;;;5046506;28;19932;-56
2023/12/09 09:05:21;;;;;;;;;;;8.30;99.90;;;;;;5023105;28;19925;-57
2023/12/09 09:07:49;;;;;;;;;;;8.30;99.90;;;;;;5031349;28;20000;-56
2023/12/09 09:10:18;;;;;;;;;;;8.40;99.90;;;;;;5031783;28;19929;-55
2023/12/09 09:12:46;;;;;;;;;;;8.40;99.90;;;;;;5031025;28;19925;-56
2023/12/09 09:15:16;;;;;;;;;;;8.40;99.90;;;;;;5031471;28;19925;-57
2023/12/09 09:17:43;;;;;;;;;;;8.40;99.90;;;;;;5030356;28;20381;-56
2023/12/09 09:20:11;;;;;;;;;;;8.40;99.90;;;;;;5020886;28;20289;-56
2023/12/09 09:22:41;;;;;;;;;;;8.50;99.90;;;;;;5023479;28;19929;-56
2023/12/09 09:25:15;;;;;;;;;;;8.90;99.90;;;;;;5045187;28;19925;-56
2023/12/09 09:27:43;;;;;;;;;;;8.50;99.90;;;;;;5046363;28;19932;-56
2023/12/09 09:30:13;;;;;;;;;;;8.50;99.90;;;;;;5030996;28;19936;-56
2023/12/09 09:32:41;;;;;;;;;;;8.60;99.90;;;;;;5031069;28;20398;-56
2023/12/09 09:35:09;;;;;;;;;;;8.60;99.90;;;;;;5020139;28;19936;-56
2023/12/09 09:37:36;;;;;;;;;;;8.60;99.90;;;;;;5017132;28;19928;-56
2023/12/09 09:40:05;;;;;;;;;;;8.70;99.90;;;;;;5044839;28;19933;-56
2023/12/09 09:42:32;;;;;;;;;;;8.70;99.90;;;;;;5030201;28;20308;-56
2023/12/09 09:45:00;;;;;;;;;;;8.70;99.90;;;;;;5031226;28;19925;-56
2023/12/09 09:47:29;;;;;;;;;;;8.70;99.90;;;;;;5030530;28;20262;-56
2023/12/09 09:49:58;;;;;;;;;;;8.80;99.90;;;;;;5027107;28;20561;-56
2023/12/09 09:52:27;;;;;;;;;;;8.90;99.90;;;;;;5030682;28;20401;-56
2023/12/09 09:54:55;;;;;;;;;;;8.90;99.90;;;;;;5036985;28;19929;-56
2023/12/09 09:57:23;;;;;;;;;;;9.00;99.90;;;;;;5026731;28;19925;-56
2023/12/09 09:59:57;;;;;;;;;;;9.00;99.90;;;;;;5029516;28;19932;-56
2023/12/09 10:02:26;;;;;;;;;;;9.00;99.90;;;;;;5030127;28;19925;-57
2023/12/09 10:04:55;;;;;;;;;;;9.10;99.90;;;;;;5026611;28;19925;-56
2023/12/09 10:07:23;;;;;;;;;;;9.10;99.90;;;;;;5030278;28;19925;-56
2023/12/09 10:09:51;;;;;;;;;;;9.10;99.90;;;;;;5030432;28;19925;-56
2023/12/09 10:12:19;;;;;;;;;;;9.10;99.90;;;;;;5029495;28;19925;-56
2023/12/09 10:14:47;;;;;;;;;;;9.10;99.90;;;;;;5030542;28;19932;-56
2023/12/09 10:17:18;;;;;;;;;;;9.20;99.90;;;;;;5031093;28;20413;-56
2023/12/09 10:19:45;;;;;;;;;;;9.20;99.90;;;;;;5041209;28;19937;-57
2023/12/09 10:22:13;;;;;;;;;;;9.30;99.90;;;;;;5022861;28;19929;-56
2023/12/09 10:24:48;;;;;;;;;;;9.30;99.90;;;;;;5039725;28;20436;-56
2023/12/09 10:27:24;;;;;;;;;;;9.30;99.90;;;;;;5048988;28;19931;-56
2023/12/09 10:29:54;;;;;;;;;;;9.30;99.90;;;;;;5029701;28;20309;-57
2023/12/09 10:32:22;;;;;;;;;;;9.30;99.90;;;;;;5024884;28;20393;-56
2023/12/09 10:34:50;;;;;;;;;;;9.40;99.90;;;;;;5023511;28;20337;-56
2023/12/09 10:37:18;;;;;;;;;;;9.40;99.90;;;;;;5008891;28;19925;-57
2023/12/09 10:39:47;;;;;;;;;;;9.40;99.90;;;;;;5030156;28;20401;-56
2023/12/09 10:42:14;;;;;;;;;;;9.40;99.90;;;;;;5030160;28;19932;-57
2023/12/09 10:44:42;;;;;;;;;;;9.50;99.90;;;;;;5029810;28;20301;-56
2023/12/09 10:47:10;;;;;;;;;;;9.50;99.90;;;;;;5029354;28;19944;-56
2023/12/09 10:49:38;;;;;;;;;;;9.50;99.90;;;;;;5009284;28;19932;-56
2023/12/09 10:52:05;;;;;;;;;;;9.50;99.90;;;;;;5021498;28;20301;-56
2023/12/09 10:54:33;;;;;;;;;;;9.60;99.90;;;;;;5038426;28;19956;-56
2023/12/09 10:57:02;;;;;;;;;;;9.60;99.90;;;;;;5045324;28;19925;-56
2023/12/09 10:59:32;;;;;;;;;;;9.60;99.90;;;;;;5031166;28;19936;-56
2023/12/09 11:02:00;;;;;;;;;;;9.60;99.90;;;;;;5026475;28;19936;-56
2023/12/09 11:04:29;;;;;;;;;;;9.60;99.90;;;;;;5029508;28;19937;-56
2023/12/09 11:06:59;;;;;;;;;;;9.60;99.90;;;;;;5009033;28;19925;-57
2023/12/09 11:09:27;;;;;;;;;;;9.60;99.90;;;;;;5027462;28;19937;-56
2023/12/09 11:11:55;;;;;;;;;;;9.70;99.90;;;;;;5029102;28;19936;-56
2023/12/09 11:14:26;;;;;;;;;;;9.70;99.90;;;;;;5045249;28;20208;-56
2023/12/09 11:16:57;;;;;;;;;;;9.70;99.90;;;;;;5028464;28;19925;-55
2023/12/09 11:19:25;;;;;;;;;;;9.70;99.90;;;;;;5028063;28;19929;-56
2023/12/09 11:21:53;;;;;;;;;;;9.70;99.90;;;;;;5017637;28;19932;-55
2023/12/09 11:24:28;;;;;;;;;;;9.70;99.90;;;;;;5040317;28;20410;-55
2023/12/09 11:26:56;;;;;;;;;;;9.80;99.90;;;;;;5024733;28;19932;-55
2023/12/09 11:29:25;;;;;;;;;;;9.80;99.90;;;;;;5045623;28;20412;-55
2023/12/09 11:31:53;;;;;;;;;;;9.80;99.90;;;;;;5029947;28;19925;-55
2023/12/09 11:34:22;;;;;;;;;;;9.80;99.90;;;;;;5027857;28;19948;-56
2023/12/09 11:36:52;;;;;;;;;;;9.80;99.90;;;;;;4994808;28;19933;-55
2023/12/09 11:39:21;;;;;;;;;;;9.90;99.90;;;;;;5026378;28;19929;-56
2023/12/09 11:41:50;;;;;;;;;;;9.90;99.90;;;;;;5028706;28;20287;-55
2023/12/09 11:44:18;;;;;;;;;;;10.00;99.90;;;;;;5027674;28;19925;-55
2023/12/09 11:46:46;;;;;;;;;;;10.00;99.90;;;;;;5028234;28;19925;-56
2023/12/09 11:49:14;;;;;;;;;;;10.10;99.90;;;;;;5027380;28;19948;-56
2023/12/09 11:51:42;;;;;;;;;;;10.20;99.90;;;;;;5013967;28;20409;-55
2023/12/09 11:54:11;;;;;;;;;;;10.30;99.90;;;;;;5029619;28;19929;-55
2023/12/09 11:56:39;;;;;;;;;;;10.40;99.90;;;;;;5028021;28;19928;-56
2023/12/09 11:59:08;;;;;;;;;;;10.50;99.90;;;;;;5028451;28;19925;-56
2023/12/09 12:01:36;;;;;;;;;;;10.50;99.90;;;;;;5028052;28;19925;-56
2023/12/09 12:04:04;;;;;;;;;;;10.50;99.90;;;;;;5028346;28;19926;-56
2023/12/09 12:06:35;;;;;;;;;;;10.60;99.90;;;;;;5016716;28;19929;-56
2023/12/09 12:09:04;;;;;;;;;;;10.60;99.90;;;;;;5023341;28;19925;-56
2023/12/09 12:11:32;;;;;;;;;;;10.60;99.90;;;;;;5028344;28;19929;-56
2023/12/09 12:14:01;;;;;;;;;;;10.60;99.90;;;;;;5027983;28;19936;-56
2023/12/09 12:16:29;;;;;;;;;;;10.60;99.90;;;;;;5028045;28;19936;-56
2023/12/09 12:18:56;;;;;;;;;;;10.50;99.90;;;;;;5024175;28;19932;-56
2023/12/09 12:21:25;;;;;;;;;;;10.50;99.90;;;;;;5025650;28;20298;-56
2023/12/09 12:23:53;;;;;;;;;;;10.50;99.90;;;;;;5024488;28;19925;-56
2023/12/09 12:26:21;;;;;;;;;;;10.50;99.90;;;;;;5033875;28;19936;-56
2023/12/09 12:28:51;;;;;;;;;;;10.50;99.90;;;;;;5032131;28;19925;-56
2023/12/09 12:31:20;;;;;;;;;;;10.60;99.90;;;;;;5031715;28;20440;-57
2023/12/09 12:33:48;;;;;;;;;;;10.60;99.90;;;;;;5034093;28;20485;-56
2023/12/09 12:36:17;;;;;;;;;;;10.60;99.90;;;;;;5031023;28;19929;-56
2023/12/09 12:38:46;;;;;;;;;;;10.50;99.90;;;;;;5042518;28;19936;-56
2023/12/09 12:41:14;;;;;;;;;;;10.50;99.90;;;;;;5032398;28;20300;-56
2023/12/09 12:43:43;;;;;;;;;;;10.50;99.90;;;;;;5046394;28;19925;-56
2023/12/09 12:46:10;;;;;;;;;;;10.50;99.90;;;;;;5040826;28;19929;-56
2023/12/09 12:48:38;;;;;;;;;;;10.50;99.90;;;;;;5038234;28;19933;-56
2023/12/09 12:51:06;;;;;;;;;;;10.50;99.90;;;;;;5025450;28;19936;-56
2023/12/09 12:53:34;;;;;;;;;;;10.50;99.90;;;;;;5025365;28;19925;-56
2023/12/09 12:56:02;;;;;;;;;;;10.50;99.90;;;;;;5036965;28;19929;-56
2023/12/09 12:58:30;;;;;;;;;;;10.50;99.90;;;;;;5038676;28;19956;-56
2023/12/09 13:00:58;;;;;;;;;;;10.50;99.90;;;;;;5031694;28;19932;-56
2023/12/09 13:03:26;;;;;;;;;;;10.50;99.90;;;;;;5031545;28;19932;-56
2023/12/09 13:05:54;;;;;;;;;;;10.50;99.90;;;;;;5028200;28;19926;-55
2023/12/09 13:08:22;;;;;;;;;;;10.60;99.90;;;;;;5028338;28;19925;-56
2023/12/09 13:10:50;;;;;;;;;;;10.70;99.90;;;;;;5031172;28;20427;-56
2023/12/09 13:13:19;;;;;;;;;;;10.80;99.90;;;;;;5031232;28;19929;-56
2023/12/09 13:15:46;;;;;;;;;;;11.00;99.90;;;;;;5031626;28;19932;-56
2023/12/09 13:18:14;;;;;;;;;;;11.30;99.90;;;;;;5031168;28;19925;-55
2023/12/09 13:20:45;;;;;;;;;;;11.30;99.90;;;;;;5030411;28;19932;-56
2023/12/09 13:23:13;;;;;;;;;;;11.30;99.90;;;;;;5029497;28;19925;-56
2023/12/09 13:25:41;;;;;;;;;;;11.10;99.90;;;;;;5040771;28;19929;-56
2023/12/09 13:28:09;;;;;;;;;;;11.00;99.90;;;;;;5031006;28;19925;-56
2023/12/09 13:30:38;;;;;;;;;;;10.90;99.90;;;;;;5031456;28;20321;-56
2023/12/09 13:33:07;;;;;;;;;;;10.70;99.90;;;;;;5040844;28;20285;-57
2023/12/09 13:35:35;;;;;;;;;;;10.60;99.90;;;;;;5051514;28;19925;-55
2023/12/09 13:38:03;;;;;;;;;;;10.60;99.90;;;;;;5023340;28;19924;-55
2023/12/09 13:40:31;;;;;;;;;;;10.60;99.90;;;;;;5050397;28;19936;-56
2023/12/09 13:43:00;;;;;;;;;;;10.60;99.90;;;;;;5029210;28;19925;-56
2023/12/09 13:45:35;;;;;;;;;;;10.70;99.90;;;;;;5031434;28;19936;-61
2023/12/09 13:48:04;;;;;;;;;;;11.10;99.90;;;;;;5037740;28;19924;-55
2023/12/09 13:50:32;;;;;;;;;;;11.40;99.90;;;;;;5032847;28;19936;-56
2023/12/09 13:53:01;;;;;;;;;;;11.60;99.90;;;;;;5028994;28;19936;-57
2023/12/09 13:55:28;;;;;;;;;;;11.90;99.90;;;;;;5040583;28;19924;-57
2023/12/09 13:57:56;;;;;;;;;;;12.20;99.90;;;;;;5029832;28;19940;-56
2023/12/09 14:00:25;;;;;;;;;;;12.30;99.90;;;;;;5030231;28;19925;-56
2023/12/09 14:02:53;;;;;;;;;;;12.30;99.90;;;;;;5030851;28;19932;-57
2023/12/09 14:05:20;;;;;;;;;;;12.20;99.90;;;;;;5030947;28;19925;-59
2023/12/09 14:07:48;;;;;;;;;;;12.00;99.90;;;;;;5011165;28;19926;-56
2023/12/09 14:10:16;;;;;;;;;;;11.90;99.90;;;;;;5030886;28;19925;-58
2023/12/09 14:12:46;;;;;;;;;;;11.70;99.90;;;;;;5030360;28;19948;-56
2023/12/09 14:15:14;;;;;;;;;;;11.50;99.90;;;;;;5030741;28;19925;-56
2023/12/09 14:17:43;;;;;;;;;;;11.20;99.90;;;;;;5030177;28;19925;-58
2023/12/09 14:20:14;;;;;;;;;;;11.10;99.90;;;;;;5030820;28;19932;-57
2023/12/09 14:22:45;;;;;;;;;;;11.00;99.90;;;;;;5033660;28;20325;-57
2023/12/09 14:25:13;;;;;;;;;;;10.80;99.90;;;;;;5050556;28;19936;-57
2023/12/09 14:27:41;;;;;;;;;;;10.70;99.90;;;;;;5043516;28;20008;-57
2023/12/09 14:30:11;;;;;;;;;;;10.60;99.90;;;;;;5029290;28;19925;-57
2023/12/09 14:32:43;;;;;;;;;;;10.60;99.90;;;;;;5029772;28;19925;-56
2023/12/09 14:35:15;;;;;;;;;;;10.50;99.90;;;;;;5010699;28;20297;-57